createdAt,value
2024-03-27T00:00:48.426Z,92630.00
2024-03-27T00:01:48.523Z,92630.00
2024-03-27T00:02:48.636Z,92630.00
2024-03-27T00:03:48.736Z,92629.00
2024-03-27T00:57:59.114Z,92561.00
2024-03-27T00:58:49.097Z,92559.00
2024-03-27T00:59:49.101Z,92566.00
2024-03-27T01:00:49.089Z,92565.00
2024-03-27T01:01:49.111Z,92569.00
2024-03-27T01:02:49.111Z,92562.00
2024-03-27T01:03:49.108Z,92560.00
2024-03-27T01:04:49.108Z,92550.00
2024-03-27T01:05:49.101Z,92551.00
2024-03-27T01:06:49.110Z,92547.00
2024-03-27T01:07:49.205Z,92547.00
2024-03-27T01:08:49.237Z,92542.00
2024-03-27T01:09:49.301Z,92543.00
2024-03-27T01:10:49.376Z,92540.00
2024-03-27T01:11:49.440Z,92540.00
2024-03-27T01:12:49.513Z,92535.00
2024-03-27T01:13:49.628Z,92541.00
2024-03-27T01:14:49.643Z,92538.00
2024-03-27T01:15:49.717Z,92539.00
2024-03-27T01:16:49.786Z,92538.00
2024-03-27T01:17:49.850Z,92536.00
2024-03-27T01:18:49.917Z,92535.00
2024-03-27T01:19:50.007Z,92535.00
2024-03-27T01:20:50.175Z,92530.00
2024-03-27T01:21:50.159Z,92524.00
2024-03-27T01:22:50.203Z,92524.00
2024-03-27T01:23:50.256Z,92526.00
2024-03-27T01:24:50.328Z,92528.00
2024-03-27T01:25:50.397Z,92530.00
2024-03-27T01:26:50.466Z,92528.00
2024-03-27T01:27:50.532Z,92528.00
2024-03-27T01:28:50.595Z,92528.00
2024-03-27T01:29:50.691Z,92525.00
2024-03-27T01:30:50.735Z,92526.00
2024-03-27T01:31:50.806Z,92525.00
2024-03-27T01:32:50.873Z,92526.00
2024-03-27T01:33:50.945Z,92525.00
2024-03-27T01:34:51.016Z,92527.00
2024-03-27T01:35:51.084Z,92530.00
2024-03-27T01:36:51.149Z,92533.00
2024-03-27T01:37:51.213Z,92529.00
2024-03-27T01:38:51.276Z,92525.00
2024-03-27T01:39:51.351Z,92520.00
2024-03-27T01:40:51.404Z,92521.00
2024-03-27T01:41:51.479Z,92521.00
2024-03-27T01:42:51.549Z,92519.00
2024-03-27T01:43:51.614Z,92516.00
2024-03-27T01:44:51.683Z,92515.00
2024-03-27T01:45:51.765Z,92516.00
2024-03-27T01:46:51.812Z,92515.00
2024-03-27T01:47:51.886Z,92515.00
2024-03-27T01:48:51.947Z,92511.00
2024-03-27T01:49:52.019Z,92510.00
2024-03-27T01:50:52.072Z,92509.00
2024-03-27T01:51:52.136Z,92510.00
2024-03-27T01:52:52.199Z,92505.00
2024-03-27T01:53:52.271Z,92501.00
2024-03-27T01:54:52.344Z,92496.00
2024-03-27T01:55:52.417Z,92492.00
2024-03-27T01:56:52.482Z,92494.00
2024-03-27T01:57:52.537Z,92491.00
2024-03-27T01:58:52.590Z,92489.00
2024-03-27T01:59:52.672Z,92493.00
2024-03-27T02:00:52.727Z,92491.00
2024-03-27T02:01:52.837Z,92488.00
2024-03-27T02:02:52.859Z,92491.00
2024-03-27T02:03:52.937Z,92491.00
2024-03-27T02:04:52.997Z,92489.00
2024-03-27T02:05:53.074Z,92490.00
2024-03-27T02:06:53.146Z,92486.00
2024-03-27T02:07:53.202Z,92483.00
2024-03-27T02:08:53.257Z,92483.00
2024-03-27T02:09:53.343Z,92482.00
2024-03-27T02:10:53.397Z,92478.00
2024-03-27T02:11:53.466Z,92473.00
2024-03-27T02:12:53.518Z,92473.00
2024-03-27T02:13:53.586Z,92468.00
2024-03-27T02:14:53.673Z,92463.00
2024-03-27T02:15:56.206Z,92459.00
2024-03-27T02:16:57.825Z,92457.00
2024-03-27T02:17:53.748Z,92454.00
2024-03-27T02:18:53.736Z,92454.00
2024-03-27T02:19:53.729Z,92450.00
2024-03-27T02:20:53.732Z,92447.00
2024-03-27T02:21:53.735Z,92442.00
2024-03-27T02:22:53.746Z,92440.00
2024-03-27T02:23:53.736Z,92439.00
2024-03-27T02:24:53.740Z,92440.00
2024-03-27T02:25:53.739Z,92436.00
2024-03-27T02:26:53.749Z,92434.00
2024-03-27T02:27:53.746Z,92430.00
2024-03-27T02:28:53.744Z,92429.00
2024-03-27T02:29:53.743Z,92428.00
2024-03-27T02:30:53.751Z,92425.00
2024-03-27T02:31:53.747Z,92417.00
2024-03-27T02:32:53.789Z,92410.00
2024-03-27T02:33:53.857Z,92405.00
2024-03-27T02:34:53.845Z,92400.00
2024-03-27T02:35:53.843Z,92397.00
2024-03-27T02:36:53.850Z,92397.00
2024-03-27T02:37:53.840Z,92395.00
2024-03-27T02:38:53.852Z,92399.00
2024-03-27T02:39:53.846Z,92401.00
2024-03-27T02:40:53.842Z,92403.00
2024-03-27T02:41:53.839Z,92405.00
2024-03-27T02:42:53.857Z,92408.00
2024-03-27T02:43:53.841Z,92409.00
2024-03-27T02:44:54.659Z,92414.00
2024-03-27T02:45:53.938Z,92414.00
2024-03-27T02:46:54.661Z,92414.00
2024-03-27T02:47:54.037Z,92415.00
2024-03-27T02:48:54.090Z,92417.00
2024-03-27T02:49:54.178Z,92419.00
2024-03-27T02:50:54.202Z,92417.00
2024-03-27T02:51:54.242Z,92416.00
2024-03-27T02:52:54.279Z,92411.00
2024-03-27T02:53:54.324Z,92410.00
2024-03-27T02:54:54.376Z,92416.00
2024-03-27T02:55:54.478Z,92419.00
2024-03-27T02:56:54.590Z,92415.00
2024-03-27T02:57:54.690Z,92418.00
2024-03-27T02:58:54.798Z,92421.00
2024-03-27T02:59:54.881Z,92425.00
2024-03-27T03:00:55.258Z,92420.00
2024-03-27T03:01:55.083Z,92423.00
2024-03-27T03:02:55.181Z,92428.00
2024-03-27T03:03:55.278Z,92421.00
2024-03-27T03:04:55.364Z,92414.00
2024-03-27T03:05:55.482Z,92411.00
2024-03-27T03:06:55.579Z,92407.00
2024-03-27T03:07:55.697Z,92406.00
2024-03-27T03:08:55.815Z,92401.00
2024-03-27T03:09:55.921Z,92399.00
2024-03-27T03:10:56.054Z,92400.00
2024-03-27T03:11:56.158Z,92402.00
2024-03-27T03:12:56.270Z,92399.00
2024-03-27T03:13:56.395Z,92395.00
2024-03-27T03:14:56.521Z,92394.00
2024-03-27T03:15:56.644Z,92394.00
2024-03-27T03:16:56.752Z,92396.00
2024-03-27T03:17:56.871Z,92395.00
2024-03-27T03:18:56.984Z,92398.00
2024-03-27T03:19:57.110Z,92397.00
2024-03-27T03:20:57.248Z,92397.00
2024-03-27T03:21:57.313Z,92399.00
2024-03-27T03:22:57.465Z,92394.00
2024-03-27T03:23:57.553Z,92398.00
2024-03-27T03:24:57.674Z,92399.00
2024-03-27T03:25:57.789Z,92400.00
2024-03-27T03:26:57.926Z,92399.00
2024-03-27T03:27:58.020Z,92402.00
2024-03-27T03:28:58.142Z,92399.00
2024-03-27T03:29:58.249Z,92409.00
2024-03-27T03:30:58.369Z,92410.00
2024-03-27T03:31:58.481Z,92410.00
2024-03-27T03:32:58.580Z,92409.00
2024-03-27T03:33:58.700Z,92407.00
2024-03-27T03:34:58.823Z,92407.00
2024-03-27T03:35:58.934Z,92401.00
2024-03-27T03:36:59.075Z,92398.00
2024-03-27T03:37:59.173Z,92395.00
2024-03-27T03:38:59.271Z,92394.00
2024-03-27T03:39:59.381Z,92393.00
2024-03-27T03:40:59.495Z,92391.00
2024-03-27T03:41:59.710Z,92390.00
2024-03-27T03:42:59.714Z,92381.00
2024-03-27T03:43:59.832Z,92384.00
2024-03-27T03:44:59.947Z,92382.00
2024-03-27T03:46:00.060Z,92382.00
2024-03-27T03:47:00.177Z,92383.00
2024-03-27T03:48:00.335Z,92380.00
2024-03-27T03:49:00.395Z,92378.00
2024-03-27T03:50:00.508Z,92374.00
2024-03-27T03:51:00.616Z,92379.00
2024-03-27T03:52:00.731Z,92379.00
2024-03-27T03:53:00.882Z,92381.00
2024-03-27T03:54:00.943Z,92382.00
2024-03-27T03:55:01.063Z,92381.00
2024-03-27T03:56:01.169Z,92381.00
2024-03-27T03:57:01.334Z,92380.00
2024-03-27T03:58:01.378Z,92378.00
2024-03-27T03:59:01.487Z,92378.00
2024-03-27T04:00:01.602Z,92375.00
2024-03-27T04:01:01.702Z,92374.00
2024-03-27T04:02:01.818Z,92373.00
2024-03-27T04:03:01.939Z,92366.00
2024-03-27T04:04:02.081Z,92365.00
2024-03-27T04:05:02.160Z,92366.00
2024-03-27T04:06:02.268Z,92363.00
2024-03-27T04:07:02.440Z,92352.00
2024-03-27T04:08:02.477Z,92362.00
2024-03-27T04:09:02.603Z,92367.00
2024-03-27T04:10:02.691Z,92364.00
2024-03-27T04:11:02.833Z,92361.00
2024-03-27T04:12:02.905Z,92359.00
2024-03-27T04:13:03.018Z,92360.00
2024-03-27T04:14:03.130Z,92359.00
2024-03-27T04:15:03.245Z,92350.00
2024-03-27T04:16:03.359Z,92354.00
2024-03-27T04:17:03.472Z,92347.00
2024-03-27T04:18:03.576Z,92342.00
2024-03-27T04:19:03.680Z,92344.00
2024-03-27T04:20:03.794Z,92344.00
2024-03-27T04:21:10.826Z,92342.00
2024-03-27T04:22:11.822Z,92339.00
2024-03-27T04:23:11.855Z,92339.00
2024-03-27T04:24:11.883Z,92338.00
2024-03-27T04:25:11.926Z,92333.00
2024-03-27T04:26:11.895Z,92333.00
2024-03-27T04:27:11.854Z,92334.00
2024-03-27T04:28:11.849Z,92336.00
2024-03-27T04:29:11.861Z,92334.00
2024-03-27T04:30:11.846Z,92326.00
2024-03-27T04:31:18.879Z,92323.00
2024-03-27T04:32:19.873Z,92319.00
2024-03-27T04:33:19.874Z,92311.00
2024-03-27T04:34:19.883Z,92312.00
2024-03-27T04:35:19.877Z,92310.00
2024-03-27T04:36:19.866Z,92311.00
2024-03-27T04:37:19.874Z,92311.00
2024-03-27T04:38:19.874Z,92313.00
2024-03-27T04:39:19.894Z,92319.00
2024-03-27T04:40:19.886Z,92306.00
2024-03-27T04:41:19.879Z,92304.00
2024-03-27T04:42:19.883Z,92303.00
2024-03-27T04:43:19.879Z,92302.00
2024-03-27T04:44:19.868Z,92302.00
2024-03-27T04:45:19.888Z,92301.00
2024-03-27T04:46:19.884Z,92298.00
2024-03-27T04:47:19.973Z,92292.00
2024-03-27T04:48:19.936Z,92289.00
2024-03-27T04:49:19.924Z,92287.00
2024-03-27T04:50:19.936Z,92287.00
2024-03-27T04:51:19.929Z,92286.00
2024-03-27T04:52:19.940Z,92279.00
2024-03-27T04:53:19.994Z,92270.00
2024-03-27T04:54:19.987Z,92268.00
2024-03-27T04:55:19.987Z,92271.00
2024-03-27T04:56:19.978Z,92270.00
2024-03-27T04:57:19.987Z,92269.00
2024-03-27T04:58:19.980Z,92266.00
2024-03-27T04:59:20.038Z,92265.00
2024-03-27T05:00:19.977Z,92266.00
2024-03-27T05:01:19.979Z,92264.00
2024-03-27T05:02:19.981Z,92260.00
2024-03-27T05:03:19.985Z,92259.00
2024-03-27T05:04:20.001Z,92261.00
2024-03-27T05:05:20.017Z,92260.00
2024-03-27T05:06:19.984Z,92258.00
2024-03-27T05:07:19.984Z,92261.00
2024-03-27T05:08:19.992Z,92260.00
2024-03-27T05:09:19.993Z,92254.00
2024-03-27T05:10:20.001Z,92253.00
2024-03-27T05:11:22.988Z,92250.00
2024-03-27T05:12:19.998Z,92261.00
2024-03-27T05:13:19.984Z,92266.00
2024-03-27T05:14:20.004Z,92262.00
2024-03-27T05:15:19.995Z,92258.00
2024-03-27T05:16:20.005Z,92259.00
2024-03-27T05:17:18.997Z,92260.00
2024-03-27T05:18:19.993Z,92255.00
2024-03-27T05:19:20.007Z,92257.00
2024-03-27T05:20:19.999Z,92261.00
2024-03-27T05:21:20.002Z,92262.00
2024-03-27T05:22:20.005Z,92258.00
2024-03-27T05:23:20.041Z,92259.00
2024-03-27T05:24:20.132Z,92259.00
2024-03-27T05:25:20.242Z,92261.00
2024-03-27T05:26:20.328Z,92262.00
2024-03-27T05:27:20.450Z,92262.00
2024-03-27T05:28:20.528Z,92259.00
2024-03-27T05:29:20.621Z,92257.00
2024-03-27T05:30:20.725Z,92258.00
2024-03-27T05:31:20.820Z,92253.00
2024-03-27T05:32:20.916Z,92251.00
2024-03-27T05:33:21.021Z,92255.00
2024-03-27T05:34:21.120Z,92255.00
2024-03-27T05:35:21.204Z,92248.00
2024-03-27T05:36:22.073Z,92247.00
2024-03-27T05:37:21.313Z,92249.00
2024-03-27T05:38:21.328Z,92253.00
2024-03-27T05:39:21.360Z,92252.00
2024-03-27T05:40:21.362Z,92250.00
2024-03-27T05:41:21.371Z,92245.00
2024-03-27T05:42:21.362Z,92244.00
2024-03-27T05:43:21.519Z,92242.00
2024-03-27T05:44:22.008Z,92243.00
2024-03-27T05:45:21.522Z,92244.00
2024-03-27T05:46:21.516Z,92245.00
2024-03-27T05:47:21.531Z,92247.00
2024-03-27T05:48:21.536Z,92250.00
2024-03-27T05:49:21.553Z,92247.00
2024-03-27T05:50:21.563Z,92248.00
2024-03-27T05:51:21.649Z,92245.00
2024-03-27T05:52:21.742Z,92243.00
2024-03-27T05:53:21.837Z,92243.00
2024-03-27T05:54:21.928Z,92244.00
2024-03-27T05:55:22.017Z,92239.00
2024-03-27T05:56:22.114Z,92230.00
2024-03-27T05:57:22.193Z,92224.00
2024-03-27T05:58:22.288Z,92221.00
2024-03-27T05:59:22.396Z,92214.00
2024-03-27T06:00:22.468Z,92210.00
2024-03-27T06:01:22.558Z,92217.00
2024-03-27T06:02:22.714Z,92222.00
2024-03-27T06:03:22.746Z,92225.00
2024-03-27T06:04:22.816Z,92225.00
2024-03-27T06:05:22.918Z,92225.00
2024-03-27T06:06:23.002Z,92223.00
2024-03-27T06:07:23.094Z,92218.00
2024-03-27T06:08:23.185Z,92215.00
2024-03-27T06:09:23.276Z,92218.00
2024-03-27T06:10:23.359Z,92218.00
2024-03-27T06:11:23.573Z,92216.00
2024-03-27T06:12:23.547Z,92217.00
2024-03-27T06:13:23.618Z,92216.00
2024-03-27T06:14:23.711Z,92214.00
2024-03-27T06:15:23.808Z,92216.00
2024-03-27T06:16:23.892Z,92216.00
2024-03-27T06:17:23.963Z,92212.00
2024-03-27T06:18:27.022Z,92211.00
2024-03-27T06:19:24.070Z,92209.00
2024-03-27T06:20:24.060Z,92209.00
2024-03-27T06:21:24.065Z,92204.00
2024-03-27T06:22:25.021Z,92205.00
2024-03-27T06:23:24.072Z,92204.00
2024-03-27T06:24:24.068Z,92205.00
2024-03-27T06:25:24.091Z,92206.00
2024-03-27T06:26:24.075Z,92208.00
2024-03-27T06:27:24.117Z,92209.00
2024-03-27T06:28:24.083Z,92209.00
2024-03-27T06:29:24.072Z,92212.00
2024-03-27T06:30:24.097Z,92204.00
2024-03-27T06:31:27.044Z,92201.00
2024-03-27T06:32:24.093Z,92196.00
2024-03-27T06:33:24.086Z,92192.00
2024-03-27T06:34:25.040Z,92197.00
2024-03-27T06:35:24.097Z,92205.00
2024-03-27T06:36:24.092Z,92204.00
2024-03-27T06:37:24.086Z,92195.00
2024-03-27T06:38:24.093Z,92191.00
2024-03-27T06:39:24.097Z,92190.00
2024-03-27T06:40:24.097Z,92192.00
2024-03-27T06:41:24.097Z,92195.00
2024-03-27T06:42:24.166Z,92197.00
2024-03-27T06:43:24.269Z,92191.00
2024-03-27T06:44:24.307Z,92183.00
2024-03-27T06:45:26.850Z,92176.00
2024-03-27T06:46:24.423Z,92176.00
2024-03-27T06:47:24.517Z,92186.00
2024-03-27T06:48:24.530Z,92194.00
2024-03-27T06:49:24.559Z,92188.00
2024-03-27T06:50:24.604Z,92176.00
2024-03-27T06:51:24.664Z,92167.00
2024-03-27T06:52:24.736Z,92158.00
2024-03-27T06:53:24.817Z,92155.00
2024-03-27T06:54:24.901Z,92158.00
2024-03-27T06:55:24.924Z,92163.00
2024-03-27T06:56:24.982Z,92165.00
2024-03-27T06:57:25.038Z,92164.00
2024-03-27T06:58:25.101Z,92161.00
2024-03-27T06:59:25.157Z,92163.00
2024-03-27T07:00:25.244Z,92163.00
2024-03-27T07:01:26.937Z,92160.00
2024-03-27T07:02:25.268Z,92149.00
2024-03-27T07:03:25.299Z,92137.00
2024-03-27T07:04:25.275Z,92132.00
2024-03-27T07:05:25.279Z,92141.00
2024-03-27T07:06:25.285Z,92146.00
2024-03-27T07:07:27.564Z,92150.00
2024-03-27T07:08:25.281Z,92146.00
2024-03-27T07:09:25.281Z,92143.00
2024-03-27T07:10:25.286Z,92144.00
2024-03-27T07:11:25.297Z,92149.00
2024-03-27T07:12:27.648Z,92148.00
2024-03-27T07:13:25.291Z,92152.00
2024-03-27T07:14:26.042Z,92150.00
2024-03-27T07:15:25.302Z,92142.00
2024-03-27T07:16:25.308Z,92141.00
2024-03-27T07:17:25.345Z,92145.00
2024-03-27T07:18:25.309Z,92151.00
2024-03-27T07:19:25.427Z,92150.00
2024-03-27T07:20:28.083Z,92144.00
2024-03-27T07:21:25.308Z,92139.00
2024-03-27T07:22:25.322Z,92137.00
2024-03-27T07:23:25.307Z,92138.00
2024-03-27T07:24:25.305Z,92140.00
2024-03-27T07:25:25.314Z,92135.00
2024-03-27T07:26:27.796Z,92125.00
2024-03-27T07:27:25.308Z,92121.00
2024-03-27T07:28:25.311Z,92121.00
2024-03-27T07:29:26.047Z,92125.00
2024-03-27T07:30:25.314Z,92126.00
2024-03-27T07:31:25.321Z,92129.00
2024-03-27T07:32:25.307Z,92127.00
2024-03-27T07:33:25.359Z,92127.00
2024-03-27T07:34:25.408Z,92122.00
2024-03-27T07:35:25.487Z,92117.00
2024-03-27T07:36:25.531Z,92111.00
2024-03-27T07:37:25.599Z,92102.00
2024-03-27T07:38:25.635Z,92096.00
2024-03-27T07:39:25.720Z,92094.00
2024-03-27T07:40:25.732Z,92091.00
2024-03-27T07:41:25.789Z,92089.00
2024-03-27T07:42:25.834Z,92089.00
2024-03-27T07:43:25.910Z,92085.00
2024-03-27T07:44:25.941Z,92078.00
2024-03-27T07:45:25.993Z,92080.00
2024-03-27T07:46:26.061Z,92083.00
2024-03-27T07:47:27.055Z,92089.00
2024-03-27T07:48:26.149Z,92096.00
2024-03-27T07:49:26.198Z,92100.00
2024-03-27T07:50:26.262Z,92103.00
2024-03-27T07:51:26.358Z,92102.00
2024-03-27T07:52:26.349Z,92098.00
2024-03-27T07:53:27.067Z,92092.00
2024-03-27T07:54:26.506Z,92085.00
2024-03-27T07:55:26.504Z,92091.00
2024-03-27T07:56:26.543Z,92096.00
2024-03-27T07:57:26.582Z,92097.00
2024-03-27T07:58:26.639Z,92101.00
2024-03-27T07:59:26.674Z,92099.00
2024-03-27T08:00:26.721Z,92083.00
2024-03-27T08:01:26.768Z,92071.00
2024-03-27T08:02:26.828Z,92072.00
2024-03-27T08:03:26.864Z,92076.00
2024-03-27T08:04:26.930Z,92076.00
2024-03-27T08:05:26.975Z,92060.00
2024-03-27T08:06:27.021Z,92062.00
2024-03-27T08:07:27.104Z,92072.00
2024-03-27T08:08:27.131Z,92072.00
2024-03-27T08:09:27.182Z,92071.00
2024-03-27T08:10:27.233Z,92064.00
2024-03-27T08:11:27.280Z,92065.00
2024-03-27T08:12:27.326Z,92066.00
2024-03-27T08:13:27.377Z,92057.00
2024-03-27T08:14:27.423Z,92054.00
2024-03-27T08:15:27.487Z,92049.00
2024-03-27T08:16:27.529Z,92055.00
2024-03-27T08:17:27.580Z,92064.00
2024-03-27T08:18:27.635Z,92069.00
2024-03-27T08:19:27.686Z,92065.00
2024-03-27T08:20:27.738Z,92058.00
2024-03-27T08:21:27.786Z,92056.00
2024-03-27T08:22:27.834Z,92046.00
2024-03-27T08:23:27.998Z,92046.00
2024-03-27T08:24:27.946Z,92056.00
2024-03-27T08:25:27.984Z,92055.00
2024-03-27T08:26:28.028Z,92043.00
2024-03-27T08:27:28.081Z,92036.00
2024-03-27T08:28:28.136Z,92040.00
2024-03-27T08:29:28.178Z,92036.00
2024-03-27T08:30:28.229Z,92040.00
2024-03-27T08:31:28.286Z,92042.00
2024-03-27T08:32:28.340Z,92047.00
2024-03-27T08:33:28.398Z,92045.00
2024-03-27T08:34:28.479Z,92031.00
2024-03-27T08:35:28.522Z,92038.00
2024-03-27T08:36:37.368Z,92046.00
2024-03-27T08:37:28.605Z,92051.00
2024-03-27T08:38:28.630Z,92048.00
2024-03-27T08:39:28.608Z,92040.00
2024-03-27T08:40:28.638Z,92027.00
2024-03-27T08:41:28.620Z,92017.00
2024-03-27T08:42:28.608Z,92011.00
2024-03-27T08:43:28.636Z,92008.00
2024-03-27T08:44:28.619Z,92018.00
2024-03-27T08:45:28.598Z,92030.00
2024-03-27T08:46:28.646Z,92024.00
2024-03-27T08:47:28.685Z,92017.00
2024-03-27T08:48:28.648Z,92014.00
2024-03-27T08:49:28.647Z,92020.00
2024-03-27T08:50:28.655Z,92026.00
2024-03-27T08:51:28.655Z,92031.00
2024-03-27T08:52:28.659Z,92035.00
2024-03-27T08:53:28.650Z,92033.00
2024-03-27T08:54:28.661Z,92023.00
2024-03-27T08:55:28.685Z,92013.00
2024-03-27T08:56:28.694Z,92007.00
2024-03-27T08:57:29.087Z,92016.00
2024-03-27T08:58:28.712Z,92014.00
2024-03-27T08:59:28.715Z,92016.00
2024-03-27T09:00:28.739Z,92022.00
2024-03-27T09:01:28.707Z,92021.00
2024-03-27T09:02:28.720Z,92025.00
2024-03-27T09:03:28.715Z,92029.00
2024-03-27T09:04:28.713Z,92020.00
2024-03-27T09:05:28.748Z,92020.00
2024-03-27T09:06:28.845Z,92012.00
2024-03-27T09:07:28.725Z,92012.00
2024-03-27T09:08:28.727Z,92017.00
2024-03-27T09:09:28.744Z,92023.00
2024-03-27T09:10:28.738Z,92039.00
2024-03-27T09:11:28.800Z,92013.00
2024-03-27T09:12:28.818Z,92015.00
2024-03-27T09:13:29.600Z,92013.00
2024-03-27T09:14:28.922Z,92016.00
2024-03-27T09:15:29.590Z,92016.00
2024-03-27T09:16:29.012Z,92021.00
2024-03-27T09:17:29.061Z,92030.00
2024-03-27T09:18:29.103Z,92029.00
2024-03-27T09:19:29.165Z,92025.00
2024-03-27T09:20:29.196Z,92019.00
2024-03-27T09:21:29.272Z,92014.00
2024-03-27T09:22:29.317Z,92013.00
2024-03-27T09:23:46.492Z,92010.00
2024-03-27T09:24:47.525Z,92013.00
2024-03-27T09:25:47.501Z,92013.00
2024-03-27T09:26:47.510Z,92017.00
2024-03-27T09:27:47.539Z,92018.00
2024-03-27T09:28:47.486Z,92029.00
2024-03-27T09:29:47.485Z,92023.00
2024-03-27T09:30:47.568Z,92016.00
2024-03-27T09:31:47.507Z,92022.00
2024-03-27T09:32:47.503Z,92021.00
2024-03-27T09:33:47.526Z,92023.00
2024-03-27T09:34:47.506Z,92027.00
2024-03-27T09:35:47.517Z,92019.00
2024-03-27T09:36:47.532Z,92029.00
2024-03-27T09:37:47.521Z,92029.00
2024-03-27T09:38:47.509Z,92025.00
2024-03-27T09:39:47.560Z,92018.00
2024-03-27T09:40:47.522Z,92020.00
2024-03-27T09:41:48.094Z,92018.00
2024-03-27T09:42:47.552Z,92017.00
2024-03-27T09:43:47.530Z,92005.00
2024-03-27T09:44:47.531Z,92010.00
2024-03-27T09:45:47.550Z,92007.00
2024-03-27T09:46:49.370Z,92011.00
2024-03-27T09:47:47.564Z,92004.00
2024-03-27T09:48:47.591Z,92011.00
2024-03-27T09:49:47.555Z,92012.00
2024-03-27T09:50:47.531Z,92007.00
2024-03-27T09:51:47.553Z,92003.00
2024-03-27T09:52:47.543Z,92000.00
2024-03-27T09:53:47.546Z,92002.00
2024-03-27T09:54:47.585Z,91996.00
2024-03-27T09:55:47.554Z,91985.00
2024-03-27T09:56:47.545Z,91987.00
2024-03-27T09:57:47.571Z,91987.00
2024-03-27T09:58:47.575Z,91987.00
2024-03-27T09:59:47.566Z,91985.00
2024-03-27T10:00:47.561Z,91992.00
2024-03-27T10:01:49.806Z,91990.00
2024-03-27T10:02:47.564Z,91990.00
2024-03-27T10:03:47.579Z,91990.00
2024-03-27T10:04:47.562Z,91990.00
2024-03-27T10:05:47.560Z,91989.00
2024-03-27T10:06:47.593Z,91989.00
2024-03-27T10:07:47.572Z,91993.00
2024-03-27T10:08:47.565Z,91993.00
2024-03-27T10:09:47.602Z,91991.00
2024-03-27T10:10:47.573Z,91981.00
2024-03-27T10:11:47.574Z,91984.00
2024-03-27T10:12:47.581Z,91985.00
2024-03-27T10:13:47.569Z,91985.00
2024-03-27T10:14:47.584Z,91984.00
2024-03-27T10:15:47.590Z,91985.00
2024-03-27T10:16:47.569Z,91985.00
2024-03-27T10:17:47.578Z,91984.00
2024-03-27T10:18:47.592Z,91985.00
2024-03-27T10:19:47.596Z,91984.00
2024-03-27T10:20:49.943Z,91976.00
2024-03-27T10:21:47.629Z,91972.00
2024-03-27T10:22:47.604Z,91973.00
2024-03-27T10:23:47.615Z,91971.00
2024-03-27T10:24:47.628Z,91969.00
2024-03-27T10:25:47.602Z,91964.00
2024-03-27T10:26:47.620Z,91963.00
2024-03-27T10:27:47.617Z,91960.00
2024-03-27T10:28:47.601Z,91960.00
2024-03-27T10:29:47.650Z,91959.00
2024-03-27T10:30:47.718Z,91957.00
2024-03-27T10:31:47.657Z,91958.00
2024-03-27T10:32:47.665Z,91957.00
2024-03-27T10:33:47.660Z,91957.00
2024-03-27T10:35:01.639Z,91965.00
2024-03-27T10:35:47.661Z,91962.00
2024-03-27T10:36:47.682Z,91961.00
2024-03-27T10:37:47.665Z,91965.00
2024-03-27T10:38:47.673Z,91961.00
2024-03-27T10:39:47.690Z,91956.00
2024-03-27T10:40:47.683Z,91956.00
2024-03-27T10:41:47.669Z,91955.00
2024-03-27T10:42:47.697Z,91959.00
2024-03-27T10:43:47.679Z,91964.00
2024-03-27T10:44:51.130Z,91960.00
2024-03-27T10:45:47.757Z,91951.00
2024-03-27T10:46:47.716Z,91947.00
2024-03-27T10:47:47.695Z,91943.00
2024-03-27T10:48:47.713Z,91945.00
2024-03-27T10:49:48.626Z,91944.00
2024-03-27T10:50:48.004Z,91944.00
2024-03-27T10:51:47.735Z,91944.00
2024-03-27T10:52:47.697Z,91946.00
2024-03-27T10:53:47.691Z,91943.00
2024-03-27T10:54:47.713Z,91945.00
2024-03-27T10:55:48.142Z,91943.00
2024-03-27T10:56:47.706Z,91941.00
2024-03-27T10:57:47.714Z,91940.00
2024-03-27T10:58:47.698Z,91942.00
2024-03-27T10:59:47.711Z,91940.00
2024-03-27T11:00:47.744Z,91939.00
2024-03-27T11:01:47.780Z,91940.00
2024-03-27T11:02:47.850Z,91934.00
2024-03-27T11:03:47.897Z,91933.00
2024-03-27T11:04:47.949Z,91928.00
2024-03-27T11:05:47.994Z,91927.00
2024-03-27T11:06:48.072Z,91930.00
2024-03-27T11:07:48.097Z,91931.00
2024-03-27T11:08:48.154Z,91926.00
2024-03-27T11:09:48.224Z,91926.00
2024-03-27T11:10:48.263Z,91925.00
2024-03-27T11:11:48.312Z,91928.00
2024-03-27T11:12:48.425Z,91926.00
2024-03-27T11:13:48.466Z,91929.00
2024-03-27T11:14:48.548Z,91935.00
2024-03-27T11:15:48.658Z,91941.00
2024-03-27T11:16:48.725Z,91940.00
2024-03-27T11:17:48.782Z,91942.00
2024-03-27T11:18:48.944Z,91946.00
2024-03-27T11:19:48.935Z,91948.00
2024-03-27T11:20:49.019Z,91948.00
2024-03-27T11:21:49.121Z,91950.00
2024-03-27T11:22:49.167Z,91950.00
2024-03-27T11:23:49.250Z,91951.00
2024-03-27T11:24:49.383Z,91952.00
2024-03-27T11:25:49.406Z,91954.00
2024-03-27T11:26:49.475Z,91961.00
2024-03-27T11:27:49.588Z,91957.00
2024-03-27T11:28:49.626Z,91959.00
2024-03-27T11:29:49.696Z,91954.00
2024-03-27T11:30:49.820Z,91944.00
2024-03-27T11:31:49.842Z,91940.00
2024-03-27T11:32:52.639Z,91946.00
2024-03-27T11:33:49.963Z,91941.00
2024-03-27T11:34:49.939Z,91944.00
2024-03-27T11:35:49.916Z,91946.00
2024-03-27T11:36:49.949Z,91943.00
2024-03-27T11:37:49.917Z,91944.00
2024-03-27T11:38:49.931Z,91944.00
2024-03-27T11:39:50.006Z,91937.00
2024-03-27T11:40:49.971Z,91936.00
2024-03-27T11:41:49.963Z,91933.00
2024-03-27T11:42:50.001Z,91930.00
2024-03-27T11:43:49.970Z,91936.00
2024-03-27T11:44:49.970Z,91932.00
2024-03-27T11:45:49.982Z,91932.00
2024-03-27T11:46:50.150Z,91932.00
2024-03-27T11:47:49.981Z,91935.00
2024-03-27T11:48:49.975Z,91934.00
2024-03-27T11:49:49.975Z,91937.00
2024-03-27T11:50:49.995Z,91940.00
2024-03-27T11:51:50.091Z,91942.00
2024-03-27T11:52:49.992Z,91945.00
2024-03-27T11:53:50.008Z,91949.00
2024-03-27T11:54:50.033Z,91938.00
2024-03-27T11:55:49.992Z,91939.00
2024-03-27T11:56:49.990Z,91937.00
2024-03-27T11:57:50.014Z,91938.00
2024-03-27T11:58:50.064Z,91931.00
2024-03-27T11:59:50.018Z,91933.00
2024-03-27T12:00:50.049Z,91933.00
2024-03-27T12:01:50.049Z,91932.00
2024-03-27T12:02:50.118Z,91929.00
2024-03-27T12:03:50.164Z,91927.00
2024-03-27T12:04:50.211Z,91926.00
2024-03-27T12:05:50.265Z,91919.00
2024-03-27T12:06:51.192Z,91922.00
2024-03-27T12:07:50.361Z,91922.00
2024-03-27T12:08:50.403Z,91919.00
2024-03-27T12:09:50.462Z,91922.00
2024-03-27T12:10:50.512Z,91921.00
2024-03-27T12:11:50.566Z,91916.00
2024-03-27T12:12:50.621Z,91912.00
2024-03-27T12:13:50.677Z,91910.00
2024-03-27T12:14:50.720Z,91909.00
2024-03-27T12:15:50.812Z,91905.00
2024-03-27T12:16:50.840Z,91906.00
2024-03-27T12:17:50.895Z,91905.00
2024-03-27T12:18:51.004Z,91907.00
2024-03-27T12:19:51.008Z,91909.00
2024-03-27T12:20:51.071Z,91908.00
2024-03-27T12:21:51.179Z,91911.00
2024-03-27T12:22:51.374Z,91915.00
2024-03-27T12:23:51.241Z,91914.00
2024-03-27T12:24:51.335Z,91910.00
2024-03-27T12:25:51.339Z,91907.00
2024-03-27T12:26:51.407Z,91907.00
2024-03-27T12:27:51.487Z,91903.00
2024-03-27T12:28:51.551Z,91904.00
2024-03-27T12:29:51.611Z,91901.00
2024-03-27T12:30:51.699Z,91899.00
2024-03-27T12:31:51.707Z,91899.00
2024-03-27T12:32:51.764Z,91899.00
2024-03-27T12:33:51.854Z,91899.00
2024-03-27T12:34:51.895Z,91899.00
2024-03-27T12:35:51.982Z,91899.00
2024-03-27T12:36:52.118Z,91895.00
2024-03-27T12:37:52.117Z,91892.00
2024-03-27T12:38:52.204Z,91890.00